sensor_id;sensor_type;location;lat;lon;timestamp;temperature;humidity
16076;DHT22;8142;48.242;11.644;2023-06-24T00:02:02;17.90;99.90
16076;DHT22;8142;48.242;11.644;2023-06-24T00:04:28;17.90;99.90
16076;DHT22;8142;48.242;11.644;2023-06-24T00:06:54;17.90;99.90
16076;DHT22;8142;48.242;11.644;2023-06-24T00:09:22;17.90;99.90
16076;DHT22;8142;48.242;11.644;2023-06-24T00:11:48;17.90;99.90
16076;DHT22;8142;48.242;11.644;2023-06-24T00:14:13;17.90;99.90
16076;DHT22;8142;48.242;11.644;2023-06-24T00:16:40;17.90;99.90
16076;DHT22;8142;48.242;11.644;2023-06-24T00:19:07;17.90;99.90
16076;DHT22;8142;48.242;11.644;2023-06-24T00:21:34;17.90;99.90
16076;DHT22;8142;48.242;11.644;2023-06-24T00:24:03;17.80;99.90
16076;DHT22;8142;48.242;11.644;2023-06-24T00:26:30;17.90;99.90
16076;DHT22;8142;48.242;11.644;2023-06-24T00:28:58;17.90;99.90
16076;DHT22;8142;48.242;11.644;2023-06-24T00:31:24;17.90;99.90
16076;DHT22;8142;48.242;11.644;2023-06-24T00:33:50;17.80;99.90
16076;DHT22;8142;48.242;11.644;2023-06-24T00:36:17;17.90;99.90
16076;DHT22;8142;48.242;11.644;2023-06-24T00:38:43;18.00;99.90
16076;DHT22;8142;48.242;11.644;2023-06-24T00:41:10;18.00;99.90
16076;DHT22;8142;48.242;11.644;2023-06-24T00:43:36;17.90;99.90
16076;DHT22;8142;48.242;11.644;2023-06-24T00:46:03;18.00;99.90
16076;DHT22;8142;48.242;11.644;2023-06-24T00:48:29;18.00;99.90
16076;DHT22;8142;48.242;11.644;2023-06-24T00:50:57;17.90;99.90
16076;DHT22;8142;48.242;11.644;2023-06-24T00:53:24;18.00;99.90
16076;DHT22;8142;48.242;11.644;2023-06-24T00:55:51;18.00;99.90
16076;DHT22;8142;48.242;11.644;2023-06-24T00:58:18;18.00;99.90
16076;DHT22;8142;48.242;11.644;2023-06-24T01:00:47;17.90;99.90
16076;DHT22;8142;48.242;11.644;2023-06-24T01:03:13;18.00;99.90
16076;DHT22;8142;48.242;11.644;2023-06-24T01:05:44;18.00;99.90
16076;DHT22;8142;48.242;11.644;2023-06-24T01:08:10;18.00;99.90
16076;DHT22;8142;48.242;11.644;2023-06-24T01:10:41;17.90;99.90
16076;DHT22;8142;48.242;11.644;2023-06-24T01:13:08;17.90;99.90
16076;DHT22;8142;48.242;11.644;2023-06-24T01:15:35;17.90;99.90
16076;DHT22;8142;48.242;11.644;2023-06-24T01:18:02;17.90;99.90
16076;DHT22;8142;48.242;11.644;2023-06-24T01:20:56;17.90;99.90
16076;DHT22;8142;48.242;11.644;2023-06-24T01:24:01;17.90;99.90
16076;DHT22;8142;48.242;11.644;2023-06-24T01:26:49;17.90;99.90
16076;DHT22;8142;48.242;11.644;2023-06-24T01:32:29;17.80;99.90
16076;DHT22;8142;48.242;11.644;2023-06-24T01:35:12;17.80;99.90
16076;DHT22;8142;48.242;11.644;2023-06-24T01:37:44;17.80;99.90
16076;DHT22;8142;48.242;11.644;2023-06-24T01:40:31;17.80;99.90
16076;DHT22;8142;48.242;11.644;2023-06-24T01:43:00;17.80;99.90
16076;DHT22;8142;48.242;11.644;2023-06-24T01:45:32;17.80;99.90
16076;DHT22;8142;48.242;11.644;2023-06-24T01:48:19;17.80;99.90
16076;DHT22;8142;48.242;11.644;2023-06-24T01:51:12;17.80;99.90
16076;DHT22;8142;48.242;11.644;2023-06-24T01:53:42;17.80;99.90
16076;DHT22;8142;48.242;11.644;2023-06-24T01:56:12;17.80;99.90
16076;DHT22;8142;48.242;11.644;2023-06-24T01:58:41;17.80;99.90
16076;DHT22;8142;48.242;11.644;2023-06-24T02:01:08;17.80;99.90
16076;DHT22;8142;48.242;11.644;2023-06-24T02:03:34;17.80;99.90
16076;DHT22;8142;48.242;11.644;2023-06-24T02:06:02;17.70;99.90
16076;DHT22;8142;48.242;11.644;2023-06-24T02:08:32;17.70;99.90
16076;DHT22;8142;48.242;11.644;2023-06-24T02:11:00;17.70;99.90
16076;DHT22;8142;48.242;11.644;2023-06-24T02:13:28;17.70;99.90
16076;DHT22;8142;48.242;11.644;2023-06-24T02:15:58;17.80;99.90
16076;DHT22;8142;48.242;11.644;2023-06-24T02:18:27;17.70;99.90
16076;DHT22;8142;48.242;11.644;2023-06-24T02:20:54;17.70;99.90
16076;DHT22;8142;48.242;11.644;2023-06-24T02:23:21;17.70;99.90
16076;DHT22;8142;48.242;11.644;2023-06-24T02:25:49;17.70;99.90
16076;DHT22;8142;48.242;11.644;2023-06-24T02:28:16;17.80;99.90
16076;DHT22;8142;48.242;11.644;2023-06-24T02:30:43;17.70;99.90
16076;DHT22;8142;48.242;11.644;2023-06-24T02:33:09;17.70;99.90
16076;DHT22;8142;48.242;11.644;2023-06-24T02:35:37;17.70;99.90
16076;DHT22;8142;48.242;11.644;2023-06-24T02:38:03;17.70;99.90
16076;DHT22;8142;48.242;11.644;2023-06-24T02:40:30;17.70;99.90
16076;DHT22;8142;48.242;11.644;2023-06-24T02:42:57;17.70;99.90
16076;DHT22;8142;48.242;11.644;2023-06-24T02:45:23;17.70;99.90
16076;DHT22;8142;48.242;11.644;2023-06-24T02:47:49;17.70;99.90
16076;DHT22;8142;48.242;11.644;2023-06-24T02:50:16;17.70;99.90
16076;DHT22;8142;48.242;11.644;2023-06-24T02:52:42;17.60;99.90
16076;DHT22;8142;48.242;11.644;2023-06-24T02:55:08;17.60;99.90
16076;DHT22;8142;48.242;11.644;2023-06-24T02:57:35;17.60;99.90
16076;DHT22;8142;48.242;11.644;2023-06-24T03:00:03;17.70;99.90
16076;DHT22;8142;48.242;11.644;2023-06-24T03:02:32;17.70;99.90
16076;DHT22;8142;48.242;11.644;2023-06-24T03:04:59;17.70;99.90
16076;DHT22;8142;48.242;11.644;2023-06-24T03:07:28;17.70;99.90
16076;DHT22;8142;48.242;11.644;2023-06-24T03:09:55;17.70;99.90
16076;DHT22;8142;48.242;11.644;2023-06-24T03:12:21;17.70;99.90
16076;DHT22;8142;48.242;11.644;2023-06-24T03:14:47;17.70;99.90
16076;DHT22;8142;48.242;11.644;2023-06-24T03:17:13;17.60;99.90
16076;DHT22;8142;48.242;11.644;2023-06-24T03:19:39;17.70;99.90
16076;DHT22;8142;48.242;11.644;2023-06-24T03:22:05;17.70;99.90
16076;DHT22;8142;48.242;11.644;2023-06-24T03:24:31;17.70;99.90
16076;DHT22;8142;48.242;11.644;2023-06-24T03:26:57;17.70;99.90
16076;DHT22;8142;48.242;11.644;2023-06-24T03:29:23;17.70;99.90
16076;DHT22;8142;48.242;11.644;2023-06-24T03:31:49;17.70;99.90
16076;DHT22;8142;48.242;11.644;2023-06-24T03:34:16;17.70;99.90
16076;DHT22;8142;48.242;11.644;2023-06-24T03:36:42;17.70;99.90
16076;DHT22;8142;48.242;11.644;2023-06-24T03:39:08;17.70;99.90
16076;DHT22;8142;48.242;11.644;2023-06-24T03:41:34;17.70;99.90
16076;DHT22;8142;48.242;11.644;2023-06-24T03:44:00;17.70;99.90
16076;DHT22;8142;48.242;11.644;2023-06-24T03:46:27;17.70;99.90
16076;DHT22;8142;48.242;11.644;2023-06-24T03:48:58;17.70;99.90
16076;DHT22;8142;48.242;11.644;2023-06-24T03:51:25;17.70;99.90
16076;DHT22;8142;48.242;11.644;2023-06-24T03:53:51;17.70;99.90
16076;DHT22;8142;48.242;11.644;2023-06-24T03:56:17;17.70;99.90
16076;DHT22;8142;48.242;11.644;2023-06-24T03:58:43;17.70;99.90
16076;DHT22;8142;48.242;11.644;2023-06-24T04:01:09;17.70;99.90
16076;DHT22;8142;48.242;11.644;2023-06-24T04:03:35;17.70;99.90
16076;DHT22;8142;48.242;11.644;2023-06-24T04:06:01;17.70;99.90
16076;DHT22;8142;48.242;11.644;2023-06-24T04:08:27;17.70;99.90
16076;DHT22;8142;48.242;11.644;2023-06-24T04:10:57;17.50;99.90
16076;DHT22;8142;48.242;11.644;2023-06-24T04:13:24;17.30;99.90
16076;DHT22;8142;48.242;11.644;2023-06-24T04:15:50;17.20;99.90
16076;DHT22;8142;48.242;11.644;2023-06-24T04:18:17;17.00;99.90
16076;DHT22;8142;48.242;11.644;2023-06-24T04:20:43;17.00;99.90
16076;DHT22;8142;48.242;11.644;2023-06-24T04:23:09;16.80;99.90
16076;DHT22;8142;48.242;11.644;2023-06-24T04:25:36;16.70;99.90
16076;DHT22;8142;48.242;11.644;2023-06-24T04:28:03;16.70;99.90
16076;DHT22;8142;48.242;11.644;2023-06-24T04:30:31;16.70;99.90
16076;DHT22;8142;48.242;11.644;2023-06-24T04:32:57;16.70;99.90
16076;DHT22;8142;48.242;11.644;2023-06-24T04:35:23;16.80;99.90
16076;DHT22;8142;48.242;11.644;2023-06-24T04:37:49;16.90;99.90
16076;DHT22;8142;48.242;11.644;2023-06-24T04:40:19;17.00;99.90
16076;DHT22;8142;48.242;11.644;2023-06-24T04:42:45;17.10;99.90
16076;DHT22;8142;48.242;11.644;2023-06-24T04:45:12;17.20;99.90
16076;DHT22;8142;48.242;11.644;2023-06-24T04:47:37;17.30;99.90
16076;DHT22;8142;48.242;11.644;2023-06-24T04:50:04;17.40;99.90
16076;DHT22;8142;48.242;11.644;2023-06-24T04:52:30;17.40;99.90
16076;DHT22;8142;48.242;11.644;2023-06-24T04:54:56;17.50;99.90
16076;DHT22;8142;48.242;11.644;2023-06-24T04:57:31;17.60;99.90
16076;DHT22;8142;48.242;11.644;2023-06-24T04:59:58;17.70;99.90
16076;DHT22;8142;48.242;11.644;2023-06-24T05:02:24;17.70;99.90
16076;DHT22;8142;48.242;11.644;2023-06-24T05:04:51;17.80;99.90
16076;DHT22;8142;48.242;11.644;2023-06-24T05:07:18;17.80;99.90
16076;DHT22;8142;48.242;11.644;2023-06-24T05:09:46;17.90;99.90
16076;DHT22;8142;48.242;11.644;2023-06-24T05:12:13;17.90;99.90
16076;DHT22;8142;48.242;11.644;2023-06-24T05:14:38;18.00;99.90
16076;DHT22;8142;48.242;11.644;2023-06-24T05:17:05;18.10;99.90
16076;DHT22;8142;48.242;11.644;2023-06-24T05:19:31;18.10;99.90
16076;DHT22;8142;48.242;11.644;2023-06-24T05:21:58;18.20;99.90
16076;DHT22;8142;48.242;11.644;2023-06-24T05:24:23;18.30;99.90
16076;DHT22;8142;48.242;11.644;2023-06-24T05:26:50;18.30;99.90
16076;DHT22;8142;48.242;11.644;2023-06-24T05:29:17;18.40;99.90
16076;DHT22;8142;48.242;11.644;2023-06-24T05:31:44;18.50;99.90
16076;DHT22;8142;48.242;11.644;2023-06-24T05:34:10;18.60;99.90
16076;DHT22;8142;48.242;11.644;2023-06-24T05:36:36;18.70;99.90
16076;DHT22;8142;48.242;11.644;2023-06-24T05:39:02;18.80;99.90
16076;DHT22;8142;48.242;11.644;2023-06-24T05:41:28;18.80;99.90
16076;DHT22;8142;48.242;11.644;2023-06-24T05:44:09;19.00;99.90
16076;DHT22;8142;48.242;11.644;2023-06-24T05:46:36;19.20;99.90
16076;DHT22;8142;48.242;11.644;2023-06-24T05:49:02;19.50;99.90
16076;DHT22;8142;48.242;11.644;2023-06-24T05:51:28;19.70;99.90
16076;DHT22;8142;48.242;11.644;2023-06-24T05:53:54;19.90;99.90
16076;DHT22;8142;48.242;11.644;2023-06-24T05:56:21;20.10;99.90
16076;DHT22;8142;48.242;11.644;2023-06-24T05:58:48;20.20;99.90
16076;DHT22;8142;48.242;11.644;2023-06-24T06:01:15;20.30;99.90
16076;DHT22;8142;48.242;11.644;2023-06-24T06:03:41;20.40;99.90
16076;DHT22;8142;48.242;11.644;2023-06-24T06:06:09;20.40;99.90
16076;DHT22;8142;48.242;11.644;2023-06-24T06:08:35;20.40;99.90
16076;DHT22;8142;48.242;11.644;2023-06-24T06:11:01;20.40;99.90
16076;DHT22;8142;48.242;11.644;2023-06-24T06:13:30;20.40;99.90
16076;DHT22;8142;48.242;11.644;2023-06-24T06:15:57;20.40;99.90
16076;DHT22;8142;48.242;11.644;2023-06-24T06:18:23;20.50;99.90
16076;DHT22;8142;48.242;11.644;2023-06-24T06:20:49;20.50;99.90
16076;DHT22;8142;48.242;11.644;2023-06-24T06:23:16;20.50;99.90
16076;DHT22;8142;48.242;11.644;2023-06-24T06:25:42;20.50;99.90
16076;DHT22;8142;48.242;11.644;2023-06-24T06:28:08;20.60;99.90
16076;DHT22;8142;48.242;11.644;2023-06-24T06:30:34;20.60;99.90
16076;DHT22;8142;48.242;11.644;2023-06-24T06:33:00;20.60;99.90
16076;DHT22;8142;48.242;11.644;2023-06-24T06:35:26;20.60;99.90
16076;DHT22;8142;48.242;11.644;2023-06-24T06:37:52;20.50;99.90
16076;DHT22;8142;48.242;11.644;2023-06-24T06:40:20;20.40;99.90
16076;DHT22;8142;48.242;11.644;2023-06-24T06:42:46;20.40;99.90
16076;DHT22;8142;48.242;11.644;2023-06-24T06:45:13;20.20;99.90
16076;DHT22;8142;48.242;11.644;2023-06-24T06:47:39;20.20;99.90
16076;DHT22;8142;48.242;11.644;2023-06-24T06:50:05;20.10;99.90
16076;DHT22;8142;48.242;11.644;2023-06-24T06:52:32;20.30;99.90
16076;DHT22;8142;48.242;11.644;2023-06-24T06:54:58;20.30;99.90
16076;DHT22;8142;48.242;11.644;2023-06-24T06:57:24;20.50;99.90
16076;DHT22;8142;48.242;11.644;2023-06-24T06:59:50;20.70;99.90
16076;DHT22;8142;48.242;11.644;2023-06-24T07:02:17;21.00;99.90
16076;DHT22;8142;48.242;11.644;2023-06-24T07:04:44;21.10;99.90
16076;DHT22;8142;48.242;11.644;2023-06-24T07:07:10;21.20;99.90
16076;DHT22;8142;48.242;11.644;2023-06-24T07:09:37;21.30;99.90
16076;DHT22;8142;48.242;11.644;2023-06-24T07:12:03;21.30;99.90
16076;DHT22;8142;48.242;11.644;2023-06-24T07:14:29;21.20;99.90
16076;DHT22;8142;48.242;11.644;2023-06-24T07:16:55;21.20;99.90
16076;DHT22;8142;48.242;11.644;2023-06-24T07:19:21;21.20;99.90
16076;DHT22;8142;48.242;11.644;2023-06-24T07:21:47;21.10;99.90
16076;DHT22;8142;48.242;11.644;2023-06-24T07:24:14;21.10;99.90
16076;DHT22;8142;48.242;11.644;2023-06-24T07:26:40;21.10;99.90
16076;DHT22;8142;48.242;11.644;2023-06-24T07:29:06;21.10;99.90
16076;DHT22;8142;48.242;11.644;2023-06-24T07:31:36;21.10;99.90
16076;DHT22;8142;48.242;11.644;2023-06-24T07:34:02;21.10;99.90
16076;DHT22;8142;48.242;11.644;2023-06-24T07:36:28;21.10;99.90
16076;DHT22;8142;48.242;11.644;2023-06-24T07:38:54;21.10;99.90
16076;DHT22;8142;48.242;11.644;2023-06-24T07:41:20;21.10;99.90
16076;DHT22;8142;48.242;11.644;2023-06-24T07:43:46;21.10;99.90
16076;DHT22;8142;48.242;11.644;2023-06-24T07:46:14;21.20;99.90
16076;DHT22;8142;48.242;11.644;2023-06-24T07:48:41;21.20;99.90
16076;DHT22;8142;48.242;11.644;2023-06-24T07:51:07;21.20;99.90
16076;DHT22;8142;48.242;11.644;2023-06-24T07:53:33;21.30;99.90
16076;DHT22;8142;48.242;11.644;2023-06-24T07:55:59;21.50;99.90
16076;DHT22;8142;48.242;11.644;2023-06-24T07:58:25;21.70;99.90
16076;DHT22;8142;48.242;11.644;2023-06-24T08:00:51;21.90;99.90
16076;DHT22;8142;48.242;11.644;2023-06-24T08:03:17;22.00;99.90
16076;DHT22;8142;48.242;11.644;2023-06-24T08:05:43;22.20;99.90
16076;DHT22;8142;48.242;11.644;2023-06-24T08:08:09;22.30;99.90
16076;DHT22;8142;48.242;11.644;2023-06-24T08:10:35;22.30;99.90
16076;DHT22;8142;48.242;11.644;2023-06-24T08:13:01;22.30;99.90
16076;DHT22;8142;48.242;11.644;2023-06-24T08:15:27;22.30;99.90
16076;DHT22;8142;48.242;11.644;2023-06-24T08:17:54;22.30;99.90
16076;DHT22;8142;48.242;11.644;2023-06-24T08:20:23;22.30;99.90
16076;DHT22;8142;48.242;11.644;2023-06-24T08:22:49;22.20;99.90
16076;DHT22;8142;48.242;11.644;2023-06-24T08:25:16;22.30;99.90
16076;DHT22;8142;48.242;11.644;2023-06-24T08:27:42;22.40;99.90
16076;DHT22;8142;48.242;11.644;2023-06-24T08:30:13;22.50;99.90
16076;DHT22;8142;48.242;11.644;2023-06-24T08:32:40;22.50;99.90
16076;DHT22;8142;48.242;11.644;2023-06-24T08:35:07;22.50;99.90
16076;DHT22;8142;48.242;11.644;2023-06-24T08:37:34;22.60;99.90
16076;DHT22;8142;48.242;11.644;2023-06-24T08:40:00;22.70;99.90
16076;DHT22;8142;48.242;11.644;2023-06-24T08:42:25;22.80;99.90
16076;DHT22;8142;48.242;11.644;2023-06-24T08:44:51;22.80;99.90
16076;DHT22;8142;48.242;11.644;2023-06-24T08:47:18;22.90;99.90
16076;DHT22;8142;48.242;11.644;2023-06-24T08:49:47;23.00;99.90
16076;DHT22;8142;48.242;11.644;2023-06-24T08:52:16;23.10;99.90
16076;DHT22;8142;48.242;11.644;2023-06-24T08:54:51;23.20;99.90
16076;DHT22;8142;48.242;11.644;2023-06-24T08:57:17;23.30;99.90
16076;DHT22;8142;48.242;11.644;2023-06-24T08:59:44;23.50;99.90
16076;DHT22;8142;48.242;11.644;2023-06-24T09:02:10;23.70;99.90
16076;DHT22;8142;48.242;11.644;2023-06-24T09:04:37;23.80;99.90
16076;DHT22;8142;48.242;11.644;2023-06-24T09:07:03;23.80;99.90
16076;DHT22;8142;48.242;11.644;2023-06-24T09:09:29;23.70;99.90
16076;DHT22;8142;48.242;11.644;2023-06-24T09:12:00;23.50;99.90
16076;DHT22;8142;48.242;11.644;2023-06-24T09:14:28;23.30;99.90
16076;DHT22;8142;48.242;11.644;2023-06-24T09:16:59;23.00;99.90
16076;DHT22;8142;48.242;11.644;2023-06-24T09:19:29;22.70;99.90
16076;DHT22;8142;48.242;11.644;2023-06-24T09:22:15;22.50;99.90
16076;DHT22;8142;48.242;11.644;2023-06-24T09:24:45;22.30;99.90
16076;DHT22;8142;48.242;11.644;2023-06-24T09:27:16;22.20;99.90
16076;DHT22;8142;48.242;11.644;2023-06-24T09:29:45;22.10;99.90
16076;DHT22;8142;48.242;11.644;2023-06-24T09:32:13;22.00;99.90
16076;DHT22;8142;48.242;11.644;2023-06-24T09:34:39;21.90;99.90
16076;DHT22;8142;48.242;11.644;2023-06-24T09:37:05;21.90;99.90
16076;DHT22;8142;48.242;11.644;2023-06-24T09:39:37;21.90;99.90
16076;DHT22;8142;48.242;11.644;2023-06-24T09:42:05;22.00;99.90
16076;DHT22;8142;48.242;11.644;2023-06-24T09:44:33;22.00;99.90
16076;DHT22;8142;48.242;11.644;2023-06-24T09:46:59;22.10;99.90
16076;DHT22;8142;48.242;11.644;2023-06-24T09:49:25;22.20;99.90
16076;DHT22;8142;48.242;11.644;2023-06-24T09:51:56;22.20;99.90
16076;DHT22;8142;48.242;11.644;2023-06-24T09:54:27;22.30;99.90
16076;DHT22;8142;48.242;11.644;2023-06-24T09:56:54;22.40;99.90
16076;DHT22;8142;48.242;11.644;2023-06-24T09:59:24;22.40;99.90
16076;DHT22;8142;48.242;11.644;2023-06-24T10:01:53;22.50;99.90
16076;DHT22;8142;48.242;11.644;2023-06-24T10:04:20;22.50;99.90
16076;DHT22;8142;48.242;11.644;2023-06-24T10:06:48;22.60;99.90
16076;DHT22;8142;48.242;11.644;2023-06-24T10:09:14;22.60;99.90
16076;DHT22;8142;48.242;11.644;2023-06-24T10:11:46;22.60;99.90
16076;DHT22;8142;48.242;11.644;2023-06-24T10:14:14;22.70;99.90
16076;DHT22;8142;48.242;11.644;2023-06-24T10:16:41;22.60;99.90
16076;DHT22;8142;48.242;11.644;2023-06-24T10:19:08;22.70;99.90
16076;DHT22;8142;48.242;11.644;2023-06-24T10:21:53;22.70;99.90
16076;DHT22;8142;48.242;11.644;2023-06-24T10:24:39;22.70;99.90
16076;DHT22;8142;48.242;11.644;2023-06-24T10:27:18;22.70;99.90
16076;DHT22;8142;48.242;11.644;2023-06-24T10:29:52;22.70;99.90
16076;DHT22;8142;48.242;11.644;2023-06-24T10:32:19;22.70;99.90
16076;DHT22;8142;48.242;11.644;2023-06-24T10:34:47;22.70;99.70
16076;DHT22;8142;48.242;11.644;2023-06-24T10:42:39;22.60;99.90
16076;DHT22;8142;48.242;11.644;2023-06-24T10:47:37;22.60;99.90
16076;DHT22;8142;48.242;11.644;2023-06-24T10:50:05;22.60;99.90
16076;DHT22;8142;48.242;11.644;2023-06-24T10:52:31;22.70;99.50
16076;DHT22;8142;48.242;11.644;2023-06-24T10:54:58;22.70;99.90
16076;DHT22;8142;48.242;11.644;2023-06-24T10:57:26;22.70;99.90
16076;DHT22;8142;48.242;11.644;2023-06-24T10:59:54;22.70;99.90
16076;DHT22;8142;48.242;11.644;2023-06-24T11:02:25;22.70;99.90
16076;DHT22;8142;48.242;11.644;2023-06-24T11:04:59;22.70;99.40
16076;DHT22;8142;48.242;11.644;2023-06-24T11:07:28;22.60;99.80
16076;DHT22;8142;48.242;11.644;2023-06-24T11:09:58;22.60;99.80
16076;DHT22;8142;48.242;11.644;2023-06-24T11:12:26;22.60;98.70
16076;DHT22;8142;48.242;11.644;2023-06-24T11:15:04;22.60;97.30
16076;DHT22;8142;48.242;11.644;2023-06-24T11:17:31;22.50;97.00
16076;DHT22;8142;48.242;11.644;2023-06-24T11:19:58;22.60;97.30
16076;DHT22;8142;48.242;11.644;2023-06-24T11:22:25;22.60;97.60
16076;DHT22;8142;48.242;11.644;2023-06-24T11:24:51;22.60;99.90
16076;DHT22;8142;48.242;11.644;2023-06-24T11:27:27;22.60;99.90
16076;DHT22;8142;48.242;11.644;2023-06-24T11:29:55;22.70;99.90
16076;DHT22;8142;48.242;11.644;2023-06-24T11:32:24;22.70;99.90
16076;DHT22;8142;48.242;11.644;2023-06-24T11:34:50;22.70;99.90
16076;DHT22;8142;48.242;11.644;2023-06-24T11:37:19;22.70;99.90
16076;DHT22;8142;48.242;11.644;2023-06-24T11:40:00;22.70;99.60
16076;DHT22;8142;48.242;11.644;2023-06-24T11:42:28;22.70;98.90
16076;DHT22;8142;48.242;11.644;2023-06-24T11:44:59;22.70;99.20
16076;DHT22;8142;48.242;11.644;2023-06-24T11:47:26;22.70;99.00
16076;DHT22;8142;48.242;11.644;2023-06-24T11:49:52;22.50;98.80
16076;DHT22;8142;48.242;11.644;2023-06-24T11:55:20;22.50;98.70
16076;DHT22;8142;48.242;11.644;2023-06-24T11:58:03;22.40;98.90
16076;DHT22;8142;48.242;11.644;2023-06-24T12:00:41;22.40;97.80
16076;DHT22;8142;48.242;11.644;2023-06-24T12:03:10;22.40;97.00
16076;DHT22;8142;48.242;11.644;2023-06-24T12:05:37;22.50;98.20
16076;DHT22;8142;48.242;11.644;2023-06-24T12:08:05;22.50;98.80
16076;DHT22;8142;48.242;11.644;2023-06-24T12:10:32;22.50;98.80
16076;DHT22;8142;48.242;11.644;2023-06-24T12:13:00;22.60;98.00
16076;DHT22;8142;48.242;11.644;2023-06-24T12:15:27;22.60;97.70
16076;DHT22;8142;48.242;11.644;2023-06-24T12:17:54;22.60;97.90
16076;DHT22;8142;48.242;11.644;2023-06-24T12:20:20;22.70;97.20
16076;DHT22;8142;48.242;11.644;2023-06-24T12:22:47;22.70;96.60
16076;DHT22;8142;48.242;11.644;2023-06-24T12:25:14;22.70;96.30
16076;DHT22;8142;48.242;11.644;2023-06-24T12:27:42;22.70;95.80
16076;DHT22;8142;48.242;11.644;2023-06-24T12:30:08;22.70;95.30
16076;DHT22;8142;48.242;11.644;2023-06-24T12:32:35;22.80;95.90
16076;DHT22;8142;48.242;11.644;2023-06-24T12:35:01;22.80;96.00
16076;DHT22;8142;48.242;11.644;2023-06-24T12:37:32;22.90;95.30
16076;DHT22;8142;48.242;11.644;2023-06-24T12:39:59;22.90;94.80
16076;DHT22;8142;48.242;11.644;2023-06-24T12:42:26;22.90;94.80
16076;DHT22;8142;48.242;11.644;2023-06-24T12:44:52;22.90;94.60
16076;DHT22;8142;48.242;11.644;2023-06-24T12:47:18;22.90;95.90
16076;DHT22;8142;48.242;11.644;2023-06-24T12:49:44;22.90;96.50
16076;DHT22;8142;48.242;11.644;2023-06-24T12:52:14;22.90;96.10
16076;DHT22;8142;48.242;11.644;2023-06-24T12:54:41;22.90;96.80
16076;DHT22;8142;48.242;11.644;2023-06-24T12:57:07;22.90;96.30
16076;DHT22;8142;48.242;11.644;2023-06-24T12:59:33;22.90;95.30
16076;DHT22;8142;48.242;11.644;2023-06-24T13:01:59;23.00;95.20
16076;DHT22;8142;48.242;11.644;2023-06-24T13:04:26;23.00;95.10
16076;DHT22;8142;48.242;11.644;2023-06-24T13:06:52;23.00;95.10
16076;DHT22;8142;48.242;11.644;2023-06-24T13:09:18;23.00;95.50
16076;DHT22;8142;48.242;11.644;2023-06-24T13:11:44;23.10;96.70
16076;DHT22;8142;48.242;11.644;2023-06-24T13:14:10;23.20;96.10
16076;DHT22;8142;48.242;11.644;2023-06-24T13:16:36;23.20;96.20
16076;DHT22;8142;48.242;11.644;2023-06-24T13:19:02;23.20;95.90
16076;DHT22;8142;48.242;11.644;2023-06-24T13:21:28;23.30;96.10
16076;DHT22;8142;48.242;11.644;2023-06-24T13:23:54;23.20;96.50
16076;DHT22;8142;48.242;11.644;2023-06-24T13:26:20;23.20;95.70
16076;DHT22;8142;48.242;11.644;2023-06-24T13:28:46;23.20;95.70
16076;DHT22;8142;48.242;11.644;2023-06-24T13:31:14;23.20;96.10
16076;DHT22;8142;48.242;11.644;2023-06-24T13:33:40;23.10;95.90
16076;DHT22;8142;48.242;11.644;2023-06-24T13:36:07;23.10;96.00
16076;DHT22;8142;48.242;11.644;2023-06-24T13:38:36;23.10;96.00
16076;DHT22;8142;48.242;11.644;2023-06-24T13:41:02;23.10;96.20
16076;DHT22;8142;48.242;11.644;2023-06-24T13:43:28;23.20;95.70
16076;DHT22;8142;48.242;11.644;2023-06-24T13:45:54;23.20;96.30
16076;DHT22;8142;48.242;11.644;2023-06-24T13:48:20;23.20;96.20
16076;DHT22;8142;48.242;11.644;2023-06-24T13:50:46;23.30;95.50
16076;DHT22;8142;48.242;11.644;2023-06-24T13:53:12;23.40;96.50
16076;DHT22;8142;48.242;11.644;2023-06-24T13:55:38;23.50;95.60
16076;DHT22;8142;48.242;11.644;2023-06-24T13:58:04;23.50;95.80
16076;DHT22;8142;48.242;11.644;2023-06-24T14:00:30;23.60;95.20
16076;DHT22;8142;48.242;11.644;2023-06-24T14:02:56;23.60;94.70
16076;DHT22;8142;48.242;11.644;2023-06-24T14:05:21;23.70;95.40
16076;DHT22;8142;48.242;11.644;2023-06-24T14:07:47;23.70;95.40
16076;DHT22;8142;48.242;11.644;2023-06-24T14:10:14;23.70;95.70
16076;DHT22;8142;48.242;11.644;2023-06-24T14:12:40;23.80;96.00
16076;DHT22;8142;48.242;11.644;2023-06-24T14:15:09;23.80;96.20
16076;DHT22;8142;48.242;11.644;2023-06-24T14:17:35;23.80;96.20
16076;DHT22;8142;48.242;11.644;2023-06-24T14:20:01;23.70;96.30
16076;DHT22;8142;48.242;11.644;2023-06-24T14:22:27;23.70;96.50
16076;DHT22;8142;48.242;11.644;2023-06-24T14:24:53;23.70;96.70
16076;DHT22;8142;48.242;11.644;2023-06-24T14:27:19;23.70;96.60
16076;DHT22;8142;48.242;11.644;2023-06-24T14:29:44;23.70;96.70
16076;DHT22;8142;48.242;11.644;2023-06-24T14:32:10;23.70;96.70
16076;DHT22;8142;48.242;11.644;2023-06-24T14:34:36;23.70;95.90
16076;DHT22;8142;48.242;11.644;2023-06-24T14:37:02;23.60;95.70
16076;DHT22;8142;48.242;11.644;2023-06-24T14:39:28;23.60;95.20
16076;DHT22;8142;48.242;11.644;2023-06-24T14:41:54;23.50;94.90
16076;DHT22;8142;48.242;11.644;2023-06-24T14:44:20;23.30;95.30
16076;DHT22;8142;48.242;11.644;2023-06-24T14:46:45;23.20;95.90
16076;DHT22;8142;48.242;11.644;2023-06-24T14:49:11;23.20;96.10
16076;DHT22;8142;48.242;11.644;2023-06-24T14:51:37;23.20;96.10
16076;DHT22;8142;48.242;11.644;2023-06-24T14:54:03;23.20;96.80
16076;DHT22;8142;48.242;11.644;2023-06-24T14:56:29;23.20;96.70
16076;DHT22;8142;48.242;11.644;2023-06-24T14:58:54;23.20;96.50
16076;DHT22;8142;48.242;11.644;2023-06-24T15:01:20;23.30;96.50
16076;DHT22;8142;48.242;11.644;2023-06-24T15:03:46;23.30;97.00
16076;DHT22;8142;48.242;11.644;2023-06-24T15:06:12;23.30;97.30
16076;DHT22;8142;48.242;11.644;2023-06-24T15:08:38;23.40;97.10
16076;DHT22;8142;48.242;11.644;2023-06-24T15:11:04;23.40;96.80
16076;DHT22;8142;48.242;11.644;2023-06-24T15:13:30;23.50;96.30
16076;DHT22;8142;48.242;11.644;2023-06-24T15:15:55;23.50;96.50
16076;DHT22;8142;48.242;11.644;2023-06-24T15:18:22;23.60;96.20
16076;DHT22;8142;48.242;11.644;2023-06-24T15:20:48;23.60;96.30
16076;DHT22;8142;48.242;11.644;2023-06-24T15:23:14;23.60;96.30
16076;DHT22;8142;48.242;11.644;2023-06-24T15:25:40;23.60;97.00
16076;DHT22;8142;48.242;11.644;2023-06-24T15:28:06;23.60;96.70
16076;DHT22;8142;48.242;11.644;2023-06-24T15:30:32;23.60;96.50
16076;DHT22;8142;48.242;11.644;2023-06-24T15:32:58;23.60;95.90
16076;DHT22;8142;48.242;11.644;2023-06-24T15:35:24;23.60;96.00
16076;DHT22;8142;48.242;11.644;2023-06-24T15:37:50;23.60;95.50
16076;DHT22;8142;48.242;11.644;2023-06-24T15:40:15;23.60;95.90
16076;DHT22;8142;48.242;11.644;2023-06-24T15:42:41;23.60;96.00
16076;DHT22;8142;48.242;11.644;2023-06-24T15:45:08;23.60;96.20
16076;DHT22;8142;48.242;11.644;2023-06-24T15:47:34;23.60;96.50